Latest Coastal Weather Observations for Roebourne Airport

IDW60701

Issued at 12:22 pm WST Wednesday 4 March 2015 (issued every 10 minutes, with the page automatically refreshed every 10 minutes)

About coastal observations | Map of coastal stations | Coastal observations for WA | Marine services | Other Formats
Station Details ID: 004090 Name: ROEBOURNE AERO Lat: -20.76 Lon: 117.16 Height: 10.7 m
Data from the previous 72 hours. | See also: Recent months at Roebourne Airport
Date/Time
WST
Temp

°C
Wind Pressure Rain
since 9am
mm
Weather Cloud Vis
km
Sea
Height
m
Swell
Dir
 
Speed
knots
Gust
knots
hPa Trend Height
m
Period
s
Dir
04/12:00pm 30.7 E 16 21 1009.7 - 0.0 - - - - - - -
04/11:30am 30.2 E 16 19 1009.8 - 0.0 - - - - - - -
04/11:00am 29.5 E 16 21 1010.2 - 0.0 - - - - - - -
04/10:30am 27.9 E 16 22 1010.8 - 0.0 - - - - - - -
04/10:00am 26.4 ESE 16 22 1010.9 - 0.0 - - - - - - -
04/09:30am 25.7 ESE 13 18 1010.8 - 0.0 - - - - - - -
04/09:00am 26.5 ESE 15 20 1010.5 - 0.0 - - - - - - -
04/08:30am 27.2 ESE 16 22 1010.2 - 0.0 - - - - - - -
04/08:00am 27.2 ESE 13 16 1009.9 - 0.0 - - - - - - -
04/07:30am 28.5 SSE 10 13 1008.9 - 0.0 - - - - - - -
04/07:00am 28.2 SE 10 12 1008.7 - 0.0 - - - - - - -
04/06:30am 28.3 ESE 12 16 1008.9 - 0.0 - - - - - - -
04/06:00am 29.2 ESE 11 14 1008.9 - 0.0 - - - - - - -
04/05:30am 29.5 SSE 9 12 1008.6 - 0.0 - - - - - - -
04/05:00am 29.5 S 9 11 1008.2 - 0.0 - - - - - - -
04/04:30am 28.9 SW 7 9 1007.9 - 0.0 - - - - - - -
04/04:00am 29.2 SW 7 9 1007.9 - 0.0 - - - - - - -
04/03:30am 29.2 SW 9 12 1007.5 - 0.0 - - - - - - -
04/03:00am 28.8 SW 8 11 1007.6 - 0.0 - - - - - - -
04/02:30am 28.5 SW 10 13 1007.3 - 0.0 - - - - - - -
04/02:00am 28.7 SW 10 13 1007.7 - 0.0 - - - - - - -
04/01:30am 28.7 WSW 10 14 1007.7 - 0.0 - - - - - - -
04/01:00am 28.6 WSW 11 14 1008.1 - 0.0 - - - - - - -
04/12:30am 28.7 WSW 11 15 1008.5 - 0.0 - - - - - - -
04/12:00am 28.7 WSW 11 13 1008.8 - 0.0 - - - - - - -
 
Date/Time
WST
Temp

°C
Wind Pressure Rain
since 9am
mm
Weather Cloud Vis
km
Sea
Height
m
Swell
Dir
 
Speed
knots
Gust
knots
hPa Trend Height
m
Period
s
Dir
03/11:30pm 28.8 W 12 15 1008.9 - 0.0 - - - - - - -
03/11:00pm 28.9 WSW 12 15 1009.0 - 0.0 - - - - - - -
03/10:30pm 29.1 W 10 13 1009.0 - 0.0 - - - - - - -
03/10:00pm 29.2 W 10 13 1009.1 - 0.0 - - - - - - -
03/09:30pm 29.5 W 9 11 1009.1 - 0.0 - - - - - - -
03/09:00pm 29.6 W 10 13 1008.8 - 0.0 - - - - - - -
03/08:30pm 29.8 WNW 12 17 1008.4 - 0.0 - - - - - - -
03/08:00pm 30.0 WNW 12 15 1007.9 - 0.0 - - - - - - -
03/07:30pm 30.4 NW 11 15 1007.7 - 0.0 - - - - - - -
03/07:00pm 30.7 NW 11 13 1007.0 - 0.0 - - - - - - -
03/06:30pm 31.6 NNW 12 15 1006.3 - 0.0 - - - - - - -
03/06:00pm 32.5 NNW 11 15 1006.0 - 0.0 - - - - - - -
03/05:30pm 33.3 NNW 10 13 1005.8 - 0.0 - - - - - - -
03/05:00pm 33.9 NNW 11 15 1005.5 - 0.0 - - - - - - -
03/04:30pm 34.3 N 11 14 1005.5 - 0.0 - - - - - - -
03/04:00pm 34.3 N 10 15 1005.6 - 0.0 - - - - - - -
03/03:30pm 35.4 N 10 15 1005.6 - 0.0 - - - - - - -
03/03:00pm 34.5 NNW 11 15 1006.0 - 0.0 - - - - - - -
03/02:30pm 35.9 NNE 10 13 1006.4 - 0.0 - - - - - - -
03/02:00pm 35.4 NNE 9 16 1006.6 - 0.0 - - - - - - -
03/01:30pm 36.1 NNE 9 15 1006.9 - 0.0 - - - - - - -
03/01:00pm 35.1 N 11 18 1007.2 - 0.0 - - - - - - -
03/12:30pm 34.5 N 10 17 1007.7 - 0.0 - - - - - - -
03/12:00pm 36.0 N 11 16 1007.8 - 0.0 - - - - - - -
03/11:30am 35.0 N 13 17 1007.9 - 0.0 - - - - - - -
03/11:29am 35.4 N 12 17 1007.9 - 0.0 - - - - - - -
03/11:00am 35.5 NNE 4 7 1008.2 - 0.0 - - - - - - -
03/10:30am 34.2 WSW 1 5 1008.6 - 0.0 - - - - - - -
03/10:00am 33.5 NNW 4 8 1008.6 - 0.0 - - - - - - -
03/09:30am 32.8 W 4 7 1008.9 - 0.0 - - - - - - -
03/09:00am 31.8 WSW 6 10 1009.0 - 0.0 - - - - - - -
03/08:30am 31.3 WSW 6 9 1008.9 - 0.0 - - - - - - -
03/08:00am 29.9 WSW 7 10 1008.8 - 0.0 - - - - - - -
03/07:30am 29.1 WSW 8 11 1008.5 - 0.0 - - - - - - -
03/07:00am 27.9 W 7 9 1008.1 - 0.0 - - - - - - -
03/06:30am 26.8 W 6 8 1007.9 - 0.0 - - - - - - -
03/06:00am 27.0 W 7 10 1007.7 - 0.0 - - - - - - -
03/05:30am 27.1 W 7 9 1007.3 - 0.0 - - - - - - -
03/05:00am 27.2 W 9 11 1007.0 - 0.0 - - - - - - -
03/04:30am 27.3 W 9 11 1006.7 - 0.0 - - - - - - -
03/04:00am 27.2 W 9 10 1006.6 - 0.0 - - - - - - -
03/03:30am 27.3 W 9 11 1006.6 - 0.0 - - - - - - -
03/03:00am 27.3 W 8 9 1006.4 - 0.0 - - - - - - -
03/02:30am 27.4 W 8 10 1006.4 - 0.0 - - - - - - -
03/02:00am 27.7 W 8 11 1006.5 - 0.0 - - - - - - -
03/01:30am 27.8 W 9 11 1006.8 - 0.0 - - - - - - -
03/01:00am 27.9 W 9 11 1007.2 - 0.0 - - - - - - -
03/12:30am 28.0 W 10 12 1007.3 - 0.0 - - - - - - -
03/12:00am 28.1 W 9 12 1007.4 - 0.0 - - - - - - -
 
Date/Time
WST
Temp

°C
Wind Pressure Rain
since 9am
mm
Weather Cloud Vis
km
Sea
Height
m
Swell
Dir
 
Speed
knots
Gust
knots
hPa Trend Height
m
Period
s
Dir
02/11:30pm 28.4 W 11 15 1007.4 - 0.0 - - - - - - -
02/11:00pm 28.5 W 10 13 1007.4 - 0.0 - - - - - - -
02/10:30pm 28.5 W 10 13 1007.6 - 0.0 - - - - - - -
02/10:00pm 28.6 W 13 17 1007.4 - 0.0 - - - - - - -
02/09:30pm 28.7 W 13 16 1007.2 - 0.0 - - - - - - -
02/09:00pm 28.9 W 14 19 1006.7 - 0.0 - - - - - - -
02/08:30pm 29.1 W 15 19 1006.2 - 0.0 - - - - - - -
02/08:00pm 29.4 W 15 19 1005.9 - 0.0 - - - - - - -
02/07:30pm 29.9 WNW 17 21 1005.4 - 0.0 - - - - - - -
02/07:00pm 30.2 WNW 15 20 1005.1 - 0.0 - - - - - - -
02/06:30pm 30.9 WNW 15 19 1004.8 - 0.0 - - - - - - -
02/06:00pm 31.9 WNW 16 20 1004.3 - 0.0 - - - - - - -
02/05:30pm 32.8 NW 16 22 1004.0 - 0.0 - - - - - - -
02/05:00pm 33.3 NW 17 21 1003.5 - 0.0 - - - - - - -
02/04:30pm 34.0 NW 16 21 1003.4 - 0.0 - - - - - - -
02/04:00pm 34.3 NW 15 20 1003.3 - 0.0 - - - - - - -
02/03:30pm 35.0 NNW 16 21 1003.4 - 0.0 - - - - - - -
02/03:00pm 35.6 NW 15 20 1003.8 - 0.0 - - - - - - -
02/02:30pm 35.7 NNW 16 21 1004.3 - 0.0 - - - - - - -
02/02:00pm 35.5 NNW 18 25 1004.5 - 0.0 - - - - - - -
02/01:55pm 35.5 NNW 15 23 1004.4 - 0.0 - - - - - - -
02/01:30pm 35.2 WSW 7 12 1004.8 - 0.0 - - - - - - -
02/01:00pm 35.8 SSW 7 13 1005.2 - 0.0 - - - - - - -
02/12:30pm 36.7 WSW 6 13 1005.7 - 0.0 - - - - - - -
02/12:00pm 35.6 W 6 12 1006.2 - 0.0 - - - - - - -
02/11:30am 34.2 W 9 14 1006.7 - 0.0 - - - - - - -
02/11:00am 34.5 WSW 8 12 1007.2 - 0.0 - - - - - - -
02/10:30am 33.5 W 8 16 1007.4 - 0.0 - - - - - - -
02/10:00am 32.5 WSW 10 14 1007.7 - 0.0 - - - - - - -
02/09:30am 31.5 SW 7 12 1008.0 - 0.0 - - - - - - -
02/09:00am 31.0 WSW 8 11 1008.1 - 0.0 - - - - - - -
02/08:30am 30.0 SW 9 12 1008.0 - 0.0 - - - - - - -
02/08:00am 29.1 WSW 9 12 1007.8 - 0.0 - - - - - - -
02/07:30am 28.3 WSW 8 11 1007.6 - 0.0 - - - - - - -
02/07:00am 27.3 WSW 7 8 1007.4 - 0.0 - - - - - - -
02/06:30am 26.5 WSW 7 8 1007.4 - 0.0 - - - - - - -
02/06:00am 26.4 WSW 7 8 1007.0 - 0.0 - - - - - - -
02/05:30am 26.6 WSW 6 8 1006.8 - 0.0 - - - - - - -
02/05:00am 26.8 WSW 8 9 1006.8 - 0.0 - - - - - - -
02/04:30am 26.9 W 8 11 1006.6 - 0.0 - - - - - - -
02/04:00am 27.0 W 10 14 1006.7 - 0.0 - - - - - - -
02/03:30am 27.1 W 9 13 1007.0 - 0.0 - - - - - - -
02/03:00am 27.2 W 10 13 1006.8 - 0.0 - - - - - - -
02/02:30am 27.3 W 11 14 1006.9 - 0.0 - - - - - - -
02/02:00am 27.5 W 11 15 1007.0 - 0.0 - - - - - - -
02/01:30am 27.7 W 9 11 1007.1 - 0.0 - - - - - - -
02/01:00am 27.7 W 8 11 1007.1 - 0.0 - - - - - - -
02/12:30am 27.9 W 9 11 1007.1 - 0.0 - - - - - - -
02/12:00am 28.0 W 9 12 1007.2 - 0.0 - - - - - - -
 
Date/Time
WST
Temp

°C
Wind Pressure Rain
since 9am
mm
Weather Cloud Vis
km
Sea
Height
m
Swell
Dir
 
Speed
knots
Gust
knots
hPa Trend Height
m
Period
s
Dir
01/11:30pm 28.2 W 8 11 1007.4 - 0.0 - - - - - - -
01/11:00pm 28.3 W 10 13 1007.7 - 0.0 - - - - - - -
01/10:30pm 28.4 W 10 13 1007.7 - 0.0 - - - - - - -
01/10:00pm 28.5 W 11 14 1007.6 - 0.0 - - - - - - -
01/09:30pm 28.7 WNW 12 15 1007.6 - 0.0 - - - - - - -
01/09:00pm 28.9 WNW 11 15 1007.5 - 0.0 - - - - - - -
01/08:30pm 29.0 W 11 15 1007.1 - 0.0 - - - - - - -
01/08:00pm 29.2 WNW 12 16 1006.8 - 0.0 - - - - - - -
01/07:30pm 29.5 WNW 13 16 1006.5 - 0.0 - - - - - - -
01/07:00pm 29.7 WNW 12 15 1006.1 - 0.0 - - - - - - -
01/06:30pm 30.3 WNW 13 18 1005.8 - 0.0 - - - - - - -
01/06:00pm 31.1 WNW 14 20 1005.6 - 0.0 - - - - - - -
01/05:30pm 32.4 NW 15 19 1005.2 - 0.0 - - - - - - -
01/05:00pm 33.1 WNW 15 19 1004.9 - 0.0 - - - - - - -
01/04:30pm 33.5 NW 14 19 1004.9 - 0.0 - - - - - - -
01/04:00pm 34.4 NNW 14 19 1004.9 - 0.0 - - - - - - -
01/03:30pm 34.4 NNW 14 19 1004.9 - 0.0 - - - - - - -
01/03:00pm 35.4 NW 14 18 1005.1 - 0.0 - - - - - - -
01/02:30pm 35.4 NW 10 15 1005.2 - 0.0 - - - - - - -
01/02:00pm 34.9 NW 12 16 1005.7 - 0.0 - - - - - - -
01/01:30pm 35.4 NNW 10 16 1006.0 - 0.0 - - - - - - -
01/01:00pm 34.9 NNW 10 18 1006.4 - 0.0 - - - - - - -
01/12:30pm 34.4 NNW 9 15 1006.7 - 0.0 - - - - - - -

Other Formats:

Comma delimited format used in spreadsheet applications
http://www.bom.gov.au/fwo/IDW60701/IDW60701.94308.axf

JavaScript Object Notation format (JSON) in row-major order
http://www.bom.gov.au/fwo/IDW60701/IDW60701.94308.json